createdAt,value
2022-07-28T00:00:59.700Z,14.70
2022-07-28T00:04:41.498Z,14.70
2022-07-28T00:08:23.303Z,14.70
2022-07-28T00:12:05.454Z,14.80
2022-07-28T00:15:47.282Z,14.80
2022-07-28T00:19:29.061Z,14.80
2022-07-28T00:23:10.832Z,14.90
2022-07-28T00:26:52.681Z,14.80
2022-07-28T00:30:34.624Z,14.80
2022-07-28T00:34:16.988Z,14.80
2022-07-28T00:38:00.107Z,14.70
2022-07-28T00:41:42.900Z,14.70
2022-07-28T00:45:24.783Z,14.70
2022-07-28T00:49:06.720Z,14.70
2022-07-28T00:52:48.570Z,14.70
2022-07-28T00:56:30.418Z,14.70
2022-07-28T01:00:12.595Z,14.80
2022-07-28T01:03:56.180Z,14.80
2022-07-28T01:07:50.195Z,14.80
2022-07-28T01:12:05.782Z,14.80
2022-07-28T01:16:01.204Z,14.90
2022-07-28T01:19:55.315Z,14.90
2022-07-28T01:23:54.377Z,15.00
2022-07-28T01:27:42.510Z,15.00
2022-07-28T01:31:25.983Z,14.90
2022-07-28T01:35:18.689Z,14.90
2022-07-28T01:39:00.761Z,14.90
2022-07-28T01:42:46.587Z,14.80
2022-07-28T01:46:28.479Z,14.80
2022-07-28T01:50:11.981Z,14.80
2022-07-28T01:53:53.922Z,14.80
2022-07-28T01:57:35.748Z,14.80
2022-07-28T02:01:18.209Z,14.90
2022-07-28T02:05:00.935Z,14.90
2022-07-28T02:08:42.895Z,14.90
2022-07-28T02:12:24.704Z,14.90
2022-07-28T02:16:07.930Z,14.90
2022-07-28T02:19:49.877Z,14.90
2022-07-28T02:23:31.649Z,14.90
2022-07-28T02:27:41.964Z,14.90
2022-07-28T02:31:26.680Z,14.90
2022-07-28T02:35:12.077Z,14.90
2022-07-28T02:38:55.215Z,14.90
2022-07-28T02:42:37.062Z,14.90
2022-07-28T02:46:20.230Z,14.90
2022-07-28T02:50:02.647Z,15.00
2022-07-28T02:53:44.433Z,15.00
2022-07-28T02:57:26.279Z,15.00
2022-07-28T03:01:08.147Z,15.00
2022-07-28T03:04:59.293Z,14.90
2022-07-28T03:08:41.358Z,14.90
2022-07-28T03:12:23.196Z,14.90
2022-07-28T03:16:05.522Z,14.90
2022-07-28T03:19:47.323Z,14.90
2022-07-28T03:23:32.965Z,14.80
2022-07-28T03:27:23.011Z,14.80
2022-07-28T03:31:07.757Z,14.80
2022-07-28T03:34:49.705Z,14.70
2022-07-28T03:38:43.711Z,14.70
2022-07-28T03:42:25.680Z,14.70
2022-07-28T03:46:12.798Z,14.70
2022-07-28T03:49:55.157Z,14.70
2022-07-28T03:53:36.960Z,14.70
2022-07-28T03:57:18.810Z,14.70
2022-07-28T04:01:00.659Z,14.80
2022-07-28T04:04:42.551Z,14.80
2022-07-28T04:08:24.567Z,14.80
2022-07-28T04:12:06.640Z,14.80
2022-07-28T04:15:48.783Z,14.80
2022-07-28T04:19:30.588Z,14.90
2022-07-28T04:23:12.435Z,14.90
2022-07-28T04:26:54.299Z,14.90
2022-07-28T04:30:39.548Z,14.90
2022-07-28T04:34:26.258Z,14.90
2022-07-28T04:38:08.447Z,14.90
2022-07-28T04:41:51.004Z,14.90
2022-07-28T04:45:32.924Z,14.90
2022-07-28T04:49:14.978Z,14.90
2022-07-28T04:52:56.857Z,14.90
2022-07-28T04:56:38.622Z,14.90
2022-07-28T05:00:20.996Z,14.90
2022-07-28T05:04:08.149Z,15.00
2022-07-28T05:07:50.078Z,15.00
2022-07-28T05:11:31.903Z,15.00
2022-07-28T05:15:13.736Z,15.00
2022-07-28T05:18:55.530Z,15.10
2022-07-28T05:22:44.297Z,15.10
2022-07-28T05:26:28.542Z,15.20
2022-07-28T05:30:10.979Z,15.20
2022-07-28T05:33:52.830Z,15.30
2022-07-28T05:37:35.618Z,15.30
2022-07-28T05:41:17.609Z,15.40
2022-07-28T05:44:59.512Z,15.50
2022-07-28T05:48:41.373Z,15.50
2022-07-28T05:52:23.185Z,15.60
2022-07-28T05:56:05.293Z,15.80
2022-07-28T05:59:47.105Z,15.90
2022-07-28T06:03:32.597Z,16.00
2022-07-28T06:07:14.586Z,16.10
2022-07-28T06:10:59.129Z,16.20
2022-07-28T06:14:40.959Z,16.30
2022-07-28T06:18:22.753Z,16.40
2022-07-28T06:22:06.206Z,16.50
2022-07-28T06:25:49.130Z,16.70
2022-07-28T06:29:30.927Z,16.80
2022-07-28T06:33:17.007Z,17.00
2022-07-28T06:36:59.150Z,17.20
2022-07-28T06:40:42.782Z,17.50
2022-07-28T06:44:37.514Z,17.70
2022-07-28T06:48:29.209Z,17.90
2022-07-28T06:52:11.381Z,18.10
2022-07-28T06:55:53.181Z,18.30
2022-07-28T06:59:34.982Z,18.50
2022-07-28T07:03:16.789Z,18.60
2022-07-28T07:06:58.614Z,18.80
2022-07-28T07:10:40.377Z,19.00
2022-07-28T07:14:25.459Z,19.20
2022-07-28T07:18:07.253Z,19.40
2022-07-28T07:21:49.092Z,19.50
2022-07-28T07:25:30.917Z,19.60
2022-07-28T07:29:12.779Z,19.70
2022-07-28T07:32:54.598Z,19.90
2022-07-28T07:36:36.377Z,20.00
2022-07-28T07:40:19.408Z,20.20
2022-07-28T07:44:01.230Z,20.30
2022-07-28T07:47:43.055Z,20.40
2022-07-28T07:51:24.886Z,20.40
2022-07-28T07:55:07.335Z,20.40
2022-07-28T07:58:53.737Z,20.40
2022-07-28T08:02:39.721Z,20.40
2022-07-28T08:06:26.493Z,20.50
2022-07-28T08:10:08.967Z,20.60
2022-07-28T08:13:50.922Z,20.80
2022-07-28T08:17:32.727Z,20.90
2022-07-28T08:21:16.146Z,21.10
2022-07-28T08:25:00.628Z,21.20
2022-07-28T08:28:42.449Z,21.40
2022-07-28T08:32:24.340Z,21.70
2022-07-28T08:36:06.325Z,22.00
2022-07-28T08:39:49.395Z,22.30
2022-07-28T08:43:33.637Z,22.60
2022-07-28T08:47:15.832Z,22.80
2022-07-28T08:51:08.190Z,22.80
2022-07-28T08:54:50.121Z,22.80
2022-07-28T08:58:32.626Z,22.90
2022-07-28T09:02:14.625Z,23.00
2022-07-28T09:05:56.987Z,23.10
2022-07-28T09:09:39.452Z,23.40
2022-07-28T09:13:21.469Z,23.70
2022-07-28T09:17:03.270Z,24.10
2022-07-28T09:20:47.322Z,24.40
2022-07-28T09:24:37.563Z,24.60
2022-07-28T09:28:20.104Z,24.80
2022-07-28T09:32:02.296Z,24.70
2022-07-28T09:35:51.520Z,24.90
2022-07-28T09:39:34.567Z,25.00
2022-07-28T09:43:16.425Z,25.30
2022-07-28T09:46:58.318Z,25.50
2022-07-28T09:50:43.645Z,25.80
2022-07-28T09:54:25.433Z,26.00
2022-07-28T09:58:09.893Z,26.10
2022-07-28T10:01:56.794Z,26.10
2022-07-28T10:05:41.814Z,25.90
2022-07-28T10:09:26.382Z,25.70
2022-07-28T10:13:08.554Z,25.40
2022-07-28T10:16:53.360Z,25.40
2022-07-28T10:20:35.340Z,25.30
2022-07-28T10:24:23.384Z,25.50
2022-07-28T10:28:05.350Z,25.80
2022-07-28T10:32:00.483Z,26.50
2022-07-28T10:35:54.520Z,26.90
2022-07-28T10:39:42.145Z,26.80
2022-07-28T10:43:24.014Z,26.40
2022-07-28T10:47:18.434Z,26.00
2022-07-28T10:51:01.940Z,25.40
2022-07-28T10:55:16.414Z,24.90
2022-07-28T10:59:58.284Z,24.50
2022-07-28T11:03:44.967Z,24.30
2022-07-28T11:07:27.021Z,24.10
2022-07-28T11:11:09.767Z,23.90
2022-07-28T11:14:51.679Z,23.90
2022-07-28T11:18:34.049Z,24.10
2022-07-28T11:22:28.093Z,24.50
2022-07-28T11:26:25.132Z,25.30
2022-07-28T11:30:10.500Z,26.00
2022-07-28T11:33:56.608Z,26.60
2022-07-28T11:38:00.293Z,27.00
2022-07-28T11:41:42.087Z,27.00
2022-07-28T11:45:26.514Z,26.80
2022-07-28T11:49:22.298Z,26.50
2022-07-28T11:53:04.165Z,26.40
2022-07-28T11:56:46.626Z,26.50
2022-07-28T12:00:28.686Z,26.60
2022-07-28T12:04:15.811Z,26.50
2022-07-28T12:07:58.390Z,26.20
2022-07-28T12:11:41.199Z,25.90
2022-07-28T12:15:23.099Z,25.60
2022-07-28T12:19:05.738Z,25.40
2022-07-28T12:22:58.588Z,25.10
2022-07-28T12:26:41.432Z,25.00
2022-07-28T12:30:27.652Z,25.10
2022-07-28T12:34:11.594Z,25.20
2022-07-28T12:37:53.670Z,25.40
2022-07-28T12:41:36.174Z,25.60
2022-07-28T12:45:18.308Z,25.80
2022-07-28T12:49:01.204Z,26.00
2022-07-28T12:53:03.422Z,26.20
2022-07-28T12:56:49.101Z,26.40
2022-07-28T13:00:33.415Z,26.50
2022-07-28T13:04:16.501Z,26.60
2022-07-28T13:08:02.752Z,26.90
2022-07-28T13:11:46.984Z,27.20
2022-07-28T13:15:29.680Z,27.50
2022-07-28T13:19:12.658Z,27.70
2022-07-28T13:22:54.607Z,27.60
2022-07-28T13:26:39.945Z,27.50
2022-07-28T13:30:26.233Z,27.50
2022-07-28T13:34:09.134Z,27.80
2022-07-28T13:37:50.946Z,27.90
2022-07-28T13:41:48.644Z,27.80
2022-07-28T13:45:35.590Z,27.90
2022-07-28T13:49:18.150Z,27.90
2022-07-28T13:53:03.494Z,28.10
2022-07-28T13:56:45.400Z,28.40
2022-07-28T14:00:27.339Z,29.00
2022-07-28T14:04:14.621Z,29.90
2022-07-28T14:07:58.771Z,30.70
2022-07-28T14:11:49.665Z,31.30
2022-07-28T14:15:35.602Z,31.60
2022-07-28T14:19:23.065Z,31.80
2022-07-28T14:23:09.941Z,32.10
2022-07-28T14:26:51.735Z,32.90
2022-07-28T14:30:33.638Z,33.80
2022-07-28T14:34:19.153Z,34.70
2022-07-28T14:38:50.267Z,35.70
2022-07-28T14:42:03.290Z,36.10
2022-07-28T14:46:01.528Z,37.50
2022-07-28T14:49:58.210Z,38.30
2022-07-28T14:53:45.260Z,39.50
2022-07-28T14:57:48.118Z,39.50
2022-07-28T15:01:36.555Z,38.80
2022-07-28T15:05:18.622Z,38.40
2022-07-28T15:09:01.571Z,38.50
2022-07-28T15:12:43.496Z,38.10
2022-07-28T15:16:25.442Z,37.80
2022-07-28T15:20:08.128Z,37.40
2022-07-28T15:23:50.092Z,36.70
2022-07-28T15:27:33.643Z,36.70
2022-07-28T15:31:17.735Z,36.80
2022-07-28T15:35:02.418Z,36.40
2022-07-28T15:38:47.578Z,36.20
2022-07-28T15:42:32.704Z,36.50
2022-07-28T15:46:14.747Z,37.10
2022-07-28T15:49:56.823Z,37.80
2022-07-28T15:53:38.752Z,38.10
2022-07-28T15:57:20.774Z,37.20
2022-07-28T16:01:02.619Z,36.50
2022-07-28T16:04:48.995Z,37.20
2022-07-28T16:08:35.661Z,38.50
2022-07-28T16:12:17.743Z,38.10
2022-07-28T16:16:00.477Z,37.20
2022-07-28T16:19:50.610Z,36.00
2022-07-28T16:23:32.696Z,34.70
2022-07-28T16:27:14.881Z,33.70
2022-07-28T16:30:56.860Z,33.00
2022-07-28T16:34:38.700Z,32.20
2022-07-28T16:38:20.970Z,32.00
2022-07-28T16:42:03.263Z,31.90
2022-07-28T16:45:45.266Z,32.40
2022-07-28T16:49:27.158Z,32.80
2022-07-28T16:53:09.214Z,32.20
2022-07-28T16:56:51.247Z,31.30
2022-07-28T17:00:33.167Z,31.00
2022-07-28T17:04:19.273Z,31.40
2022-07-28T17:08:01.566Z,31.20
2022-07-28T17:11:43.815Z,30.70
2022-07-28T17:15:25.703Z,30.50
2022-07-28T17:19:07.492Z,30.70
2022-07-28T17:22:49.278Z,30.80
2022-07-28T17:30:34.009Z,29.30
2022-07-28T17:34:16.183Z,28.80
2022-07-28T17:37:58.299Z,28.70
2022-07-28T17:41:40.185Z,28.40
2022-07-28T17:45:22.087Z,28.60
2022-07-28T17:49:05.610Z,28.40
2022-07-28T17:52:47.634Z,28.10
2022-07-28T17:56:31.397Z,28.30
2022-07-28T18:00:13.593Z,28.70
2022-07-28T18:03:59.343Z,29.00
2022-07-28T18:07:51.266Z,29.40
2022-07-28T18:11:57.332Z,29.20
2022-07-28T18:15:39.728Z,28.10
2022-07-28T18:19:21.618Z,27.10
2022-07-28T18:23:03.844Z,26.30
2022-07-28T18:26:45.626Z,25.70
2022-07-28T18:30:27.631Z,25.20
2022-07-28T18:34:09.412Z,24.70
2022-07-28T18:37:51.781Z,24.40
2022-07-28T18:41:34.385Z,24.00
2022-07-28T18:45:27.820Z,23.70
2022-07-28T18:49:10.063Z,23.40
2022-07-28T18:52:51.884Z,23.30
2022-07-28T18:56:33.705Z,23.10
2022-07-28T19:00:15.757Z,22.90
2022-07-28T19:03:57.961Z,22.60
2022-07-28T19:07:39.747Z,22.40
2022-07-28T19:11:21.616Z,22.10
2022-07-28T19:15:03.880Z,21.90
2022-07-28T19:18:45.697Z,21.70
2022-07-28T19:22:28.558Z,21.50
2022-07-28T19:26:10.403Z,21.40
2022-07-28T19:29:52.171Z,21.20
2022-07-28T19:33:34.038Z,21.00
2022-07-28T19:37:18.876Z,20.80
2022-07-28T19:41:00.702Z,20.70
2022-07-28T19:44:42.704Z,20.60
2022-07-28T19:48:24.855Z,20.50
2022-07-28T19:52:07.014Z,20.30
2022-07-28T19:55:50.962Z,20.20
2022-07-28T19:59:33.433Z,20.10
2022-07-28T20:04:00.931Z,20.00
2022-07-28T20:07:19.273Z,19.90
2022-07-28T20:11:01.381Z,19.70
2022-07-28T20:14:43.158Z,19.60
2022-07-28T20:18:25.060Z,19.60
2022-07-28T20:22:10.774Z,19.40
2022-07-28T20:25:52.989Z,19.30
2022-07-28T20:29:35.325Z,19.30
2022-07-28T20:33:17.800Z,19.10
2022-07-28T20:37:00.651Z,19.00
2022-07-28T20:40:42.454Z,18.90
2022-07-28T20:44:30.049Z,18.80
2022-07-28T20:48:14.455Z,18.70
2022-07-28T20:51:57.998Z,18.60
2022-07-28T20:55:39.853Z,18.50
2022-07-28T20:59:27.211Z,18.40
2022-07-28T21:03:09.852Z,18.30
2022-07-28T21:06:54.325Z,18.20
2022-07-28T21:10:39.834Z,18.00
2022-07-28T21:14:21.895Z,17.90
2022-07-28T21:18:04.331Z,17.80
2022-07-28T21:21:46.138Z,17.60
2022-07-28T21:25:29.814Z,17.50
2022-07-28T21:29:12.304Z,17.40
2022-07-28T21:32:54.592Z,17.30
2022-07-28T21:36:36.561Z,17.20
2022-07-28T21:40:19.150Z,17.10
2022-07-28T21:44:04.119Z,17.00
2022-07-28T21:47:46.212Z,16.90
2022-07-28T21:51:29.261Z,16.90
2022-07-28T21:55:11.080Z,16.80
2022-07-28T21:58:52.857Z,16.70
2022-07-28T22:02:34.742Z,16.60
2022-07-28T22:06:16.587Z,16.50
2022-07-28T22:09:58.379Z,16.50
2022-07-28T22:13:40.859Z,16.40
2022-07-28T22:17:22.716Z,16.40
2022-07-28T22:21:04.583Z,16.40
2022-07-28T22:24:46.355Z,16.30
2022-07-28T22:28:29.798Z,16.30
2022-07-28T22:32:12.335Z,16.20
2022-07-28T22:35:54.133Z,16.20
2022-07-28T22:39:35.931Z,16.10
2022-07-28T22:43:17.710Z,16.10
2022-07-28T22:46:59.613Z,16.00
2022-07-28T22:50:41.558Z,15.90
2022-07-28T22:54:23.332Z,15.80
2022-07-28T22:58:05.838Z,15.80
2022-07-28T23:01:47.786Z,15.70
2022-07-28T23:05:29.569Z,15.60
2022-07-28T23:09:12.444Z,15.60
2022-07-28T23:12:57.320Z,15.50
2022-07-28T23:16:40.333Z,15.40
2022-07-28T23:20:22.160Z,15.40
2022-07-28T23:24:07.802Z,15.30
2022-07-28T23:27:49.568Z,15.20
2022-07-28T23:31:31.494Z,15.20
2022-07-28T23:35:13.415Z,15.10
2022-07-28T23:38:57.866Z,15.10
2022-07-28T23:42:39.664Z,15.10
2022-07-28T23:46:21.581Z,15.00
2022-07-28T23:50:04.869Z,15.10
2022-07-28T23:53:46.710Z,15.00
2022-07-28T23:57:30.869Z,14.90
